Terminal Aerodrome Forecast
Issued by NWS Duluth, MN

Home | Current Version | Previous Version | Text Only | Print | Product List | Glossary On
Versions: 1 2 3 4 5 6 7 8 9 10 11 12 13 14 15 16 17
473
FTUS43 KDLH 211728
TAFINL
TAF
KINL 211728Z 2118/2218 04006KT P6SM FEW250
     FM220800 23004KT P6SM FEW250
     FM221700 28010G17KT P6SM SCT100=

USA.gov is the U.S. government's official web portal to all federal, state and local government web resources and services.